Time,TemperatureF,DewpointF,PressureIn,WindDirection,WindDirectionDegrees,WindSpeedMPH,WindSpeedGustMPH,Humidity,HourlyPrecipIn,Conditions,Clouds,dailyrainin,SoftwareType,DateUTC
2013-01-01 00:02:00,39.3,37.0,30.67,WSW,242,0.0,0.0,92,0.00,,,0.00,weatherlink.com 1.10,2013-01-01 08:02:00,
2013-01-01 00:17:00,39.3,37.0,30.66,East,96,1.0,3.0,91,0.00,,,0.00,weatherlink.com 1.10,2013-01-01 08:17:00,
2013-01-01 00:32:00,39.1,37.0,30.66,NE,34,0.0,4.0,92,0.00,,,0.00,weatherlink.com 1.10,2013-01-01 08:32:00,
2013-01-01 00:47:00,39.0,37.0,30.66,WSW,238,0.0,2.0,92,0.00,,,0.00,weatherlink.com 1.10,2013-01-01 08:47:00,
2013-01-01 01:02:00,39.0,37.0,30.66,East,86,0.0,0.0,92,0.00,,,0.00,weatherlink.com 1.10,2013-01-01 09:02:00,
2013-01-01 01:17:00,39.0,37.0,30.67,SE,139,0.0,0.0,92,0.00,,,0.00,weatherlink.com 1.10,2013-01-01 09:17:00,
2013-01-01 01:32:00,39.1,37.0,30.67,WSW,253,0.0,0.0,92,0.00,,,0.00,weatherlink.com 1.10,2013-01-01 09:32:00,
2013-01-01 01:47:00,39.0,37.0,30.67,ENE,77,0.0,0.0,91,0.00,,,0.00,weatherlink.com 1.10,2013-01-01 09:47:00,
2013-01-01 02:02:00,38.9,37.0,30.68,ESE,104,0.0,4.0,91,0.00,,,0.00,weatherlink.com 1.10,2013-01-01 10:02:00,
2013-01-01 02:17:00,38.8,36.0,30.68,ENE,63,0.0,3.0,89,0.00,,,0.00,weatherlink.com 1.10,2013-01-01 10:17:00,
2013-01-01 02:33:00,38.9,36.0,30.68,NE,51,2.0,5.0,89,0.00,,,0.00,weatherlink.com 1.10,2013-01-01 10:33:00,
2013-01-01 02:47:00,39.1,36.0,30.68,NE,37,3.0,4.0,89,0.00,,,0.00,weatherlink.com 1.10,2013-01-01 10:47:00,
2013-01-01 03:03:00,38.8,36.0,30.67,NNE,29,4.0,5.0,89,0.00,,,0.00,weatherlink.com 1.10,2013-01-01 11:03:00,
2013-01-01 03:18:00,37.9,35.0,30.68,NE,34,1.0,5.0,89,0.00,,,0.00,weatherlink.com 1.10,2013-01-01 11:18:00,
2013-01-01 03:33:00,-999.0,-99.9,30.67,North,-999,-999.0,-999.0,-999,0.00,,,0.00,weatherlink.com 1.10,2013-01-01 11:33:00,
2013-01-01 03:48:00,-999.0,-99.9,30.66,North,-999,-999.0,-999.0,-999,0.00,,,0.00,weatherlink.com 1.10,2013-01-01 11:48:00,
2013-01-01 04:03:00,-999.0,-99.9,30.66,North,-999,-999.0,-999.0,-999,0.00,,,0.00,weatherlink.com 1.10,2013-01-01 12:03:00,
2013-01-01 04:18:00,-999.0,-99.9,30.66,North,-999,-999.0,-999.0,-999,0.00,,,0.00,weatherlink.com 1.10,2013-01-01 12:18:00,
2013-01-01 04:33:00,-999.0,-99.9,30.66,North,-999,-999.0,-999.0,-999,0.00,,,0.00,weatherlink.com 1.10,2013-01-01 12:33:00,
2013-01-01 04:48:00,-999.0,-99.9,30.66,North,-999,-999.0,-999.0,-999,0.00,,,0.00,weatherlink.com 1.10,2013-01-01 12:48:00,
2013-01-01 05:03:00,-999.0,-99.9,30.65,North,-999,-999.0,-999.0,-999,0.00,,,0.00,weatherlink.com 1.10,2013-01-01 13:03:00,
2013-01-01 05:18:00,-999.0,-99.9,30.65,North,-999,-999.0,-999.0,-999,0.00,,,0.00,weatherlink.com 1.10,2013-01-01 13:18:00,
2013-01-01 05:33:00,-999.0,-99.9,30.66,North,-999,-999.0,-999.0,-999,0.00,,,0.00,weatherlink.com 1.10,2013-01-01 13:33:00,
2013-01-01 05:48:00,-999.0,-99.9,30.66,North,-999,-999.0,-999.0,-999,0.00,,,0.00,weatherlink.com 1.10,2013-01-01 13:48:00,
2013-01-01 06:03:00,-999.0,-99.9,30.67,North,-999,-999.0,-999.0,-999,0.00,,,0.00,weatherlink.com 1.10,2013-01-01 14:03:00,
2013-01-01 06:18:00,-999.0,-99.9,30.67,North,-999,-999.0,-999.0,-999,0.00,,,0.00,weatherlink.com 1.10,2013-01-01 14:18:00,
2013-01-01 06:33:00,-999.0,-99.9,30.67,North,-999,-999.0,-999.0,-999,0.00,,,0.00,weatherlink.com 1.10,2013-01-01 14:33:00,
2013-01-01 06:48:00,-999.0,-99.9,30.67,North,-999,-999.0,-999.0,-999,0.00,,,0.00,weatherlink.com 1.10,2013-01-01 14:48:00,
2013-01-01 07:03:00,-999.0,-99.9,30.67,North,-999,-999.0,-999.0,-999,0.00,,,0.00,weatherlink.com 1.10,2013-01-01 15:03:00,
2013-01-01 07:18:00,-999.0,-99.9,30.68,North,-999,-999.0,-999.0,-999,0.00,,,0.00,weatherlink.com 1.10,2013-01-01 15:18:00,
2013-01-01 07:33:00,-999.0,-99.9,30.68,North,-999,-999.0,-999.0,-999,0.00,,,0.00,weatherlink.com 1.10,2013-01-01 15:33:00,
2013-01-01 07:48:00,-999.0,-99.9,30.69,North,-999,-999.0,-999.0,-999,0.00,,,0.00,weatherlink.com 1.10,2013-01-01 15:48:00,
2013-01-01 08:03:00,-999.0,-99.9,30.69,North,-999,-999.0,-999.0,-999,0.00,,,0.00,weatherlink.com 1.10,2013-01-01 16:03:00,
2013-01-01 08:18:00,-999.0,-99.9,30.69,North,-999,-999.0,-999.0,-999,0.00,,,0.00,weatherlink.com 1.10,2013-01-01 16:18:00,
2013-01-01 08:33:00,-999.0,-99.9,30.69,North,-999,-999.0,-999.0,-999,0.00,,,0.00,weatherlink.com 1.10,2013-01-01 16:33:00,
2013-01-01 08:48:00,-999.0,-99.9,30.70,North,-999,-999.0,-999.0,-999,0.00,,,0.00,weatherlink.com 1.10,2013-01-01 16:48:00,
2013-01-01 09:03:00,35.9,34.0,30.70,ENE,59,4.0,9.0,92,0.00,,,0.00,weatherlink.com 1.10,2013-01-01 17:03:00,
2013-01-01 09:18:00,36.7,34.0,30.71,NE,47,2.0,7.0,90,0.00,,,0.00,weatherlink.com 1.10,2013-01-01 17:18:00,
2013-01-01 09:33:00,37.0,34.0,30.72,NE,56,3.0,7.0,89,0.00,,,0.00,weatherlink.com 1.10,2013-01-01 17:33:00,
2013-01-01 09:48:00,36.8,33.0,30.72,NE,44,7.0,7.0,86,0.00,,,0.00,weatherlink.com 1.10,2013-01-01 17:48:00,
2013-01-01 10:03:00,36.5,33.0,30.72,NE,37,9.0,9.0,86,0.00,,,0.00,weatherlink.com 1.10,2013-01-01 18:03:00,
2013-01-01 10:18:00,36.0,33.0,30.72,NNE,15,6.0,13.0,87,0.00,,,0.00,weatherlink.com 1.10,2013-01-01 18:18:00,
2013-01-01 10:33:00,36.6,33.0,30.70,NE,56,13.0,15.0,87,0.00,,,0.00,weatherlink.com 1.10,2013-01-01 18:33:00,
2013-01-01 10:48:00,37.2,33.0,30.70,NE,37,3.0,13.0,85,0.00,,,0.00,weatherlink.com 1.10,2013-01-01 18:48:00,
2013-01-01 11:03:00,37.4,33.0,30.69,NE,51,8.0,14.0,85,0.00,,,0.00,weatherlink.com 1.10,2013-01-01 19:03:00,
2013-01-01 11:18:00,37.6,33.0,30.69,ENE,70,6.0,13.0,84,0.00,,,0.00,weatherlink.com 1.10,2013-01-01 19:18:00,
2013-01-01 11:33:00,37.9,34.0,30.68,NNE,30,3.0,11.0,85,0.00,,,0.00,weatherlink.com 1.10,2013-01-01 19:33:00,
2013-01-01 11:48:00,37.8,34.0,30.69,ENE,70,1.0,10.0,85,0.00,,,0.00,weatherlink.com 1.10,2013-01-01 19:48:00,
2013-01-01 12:03:00,37.6,33.0,30.68,ENE,65,1.0,12.0,84,0.00,,,0.00,weatherlink.com 1.10,2013-01-01 20:03:00,
2013-01-01 12:19:00,37.6,34.0,30.67,NNE,27,6.0,9.0,85,0.00,,,0.00,weatherlink.com 1.10,2013-01-01 20:19:00,
2013-01-01 12:34:00,37.5,33.0,30.67,NE,34,8.0,11.0,85,0.00,,,0.00,weatherlink.com 1.10,2013-01-01 20:34:00,
2013-01-01 12:49:00,37.3,34.0,30.66,NNE,27,6.0,10.0,86,0.00,,,0.00,weatherlink.com 1.10,2013-01-01 20:49:00,
2013-01-01 13:04:00,37.8,35.0,30.66,NNE,18,0.0,8.0,88,0.00,,,0.00,weatherlink.com 1.10,2013-01-01 21:04:00,
2013-01-01 13:19:00,37.8,35.0,30.66,NE,44,3.0,8.0,88,0.00,,,0.00,weatherlink.com 1.10,2013-01-01 21:19:00,
2013-01-01 13:34:00,37.8,35.0,30.65,NE,41,1.0,9.0,89,0.00,,,0.00,weatherlink.com 1.10,2013-01-01 21:34:00,
2013-01-01 13:49:00,37.5,35.0,30.65,NNW,347,4.0,8.0,90,0.00,,,0.00,weatherlink.com 1.10,2013-01-01 21:49:00,
2013-01-01 14:04:00,37.0,34.0,30.65,NE,56,5.0,10.0,89,0.00,,,0.00,weatherlink.com 1.10,2013-01-01 22:04:00,
2013-01-01 14:19:00,36.9,34.0,30.64,NNE,27,3.0,10.0,89,0.00,,,0.00,weatherlink.com 1.10,2013-01-01 22:19:00,
2013-01-01 14:34:00,36.9,34.0,30.65,NNW,330,0.0,8.0,90,0.00,,,0.00,weatherlink.com 1.10,2013-01-01 22:34:00,
2013-01-01 14:49:00,36.9,35.0,30.65,NW,320,0.0,4.0,91,0.00,,,0.00,weatherlink.com 1.10,2013-01-01 22:49:00,
2013-01-01 15:04:00,36.7,34.0,30.65,NE,49,4.0,9.0,91,0.00,,,0.00,weatherlink.com 1.10,2013-01-01 23:04:00,
2013-01-01 15:19:00,36.6,35.0,30.65,NE,34,1.0,7.0,92,0.00,,,0.00,weatherlink.com 1.10,2013-01-01 23:19:00,
2013-01-01 15:34:00,36.5,35.0,30.65,NNE,19,3.0,6.0,93,0.00,,,0.00,weatherlink.com 1.10,2013-01-01 23:34:00,
2013-01-01 15:49:00,36.5,35.0,30.65,NE,53,1.0,5.0,93,0.00,,,0.00,weatherlink.com 1.10,2013-01-01 23:49:00,
2013-01-01 16:04:00,36.5,35.0,30.65,NE,46,1.0,4.0,93,0.00,,,0.00,weatherlink.com 1.10,2013-01-02 00:04:00,
2013-01-01 16:19:00,36.5,34.0,30.65,North,9,4.0,7.0,92,0.00,,,0.00,weatherlink.com 1.10,2013-01-02 00:19:00,
2013-01-01 16:34:00,36.8,35.0,30.64,NNE,15,1.0,5.0,91,0.00,,,0.00,weatherlink.com 1.10,2013-01-02 00:34:00,
2013-01-01 16:49:00,36.8,35.0,30.64,NW,319,1.0,7.0,91,0.00,,,0.00,weatherlink.com 1.10,2013-01-02 00:49:00,
2013-01-01 17:04:00,36.7,35.0,30.63,NNE,15,5.0,8.0,92,0.00,,,0.00,weatherlink.com 1.10,2013-01-02 01:04:00,
2013-01-01 17:19:00,36.7,35.0,30.63,NW,313,4.0,7.0,92,0.00,,,0.00,weatherlink.com 1.10,2013-01-02 01:19:00,
2013-01-01 17:34:00,36.7,35.0,30.62,NNE,15,0.0,8.0,93,0.00,,,0.00,weatherlink.com 1.10,2013-01-02 01:34:00,
2013-01-01 17:49:00,36.5,35.0,30.63,SSE,151,0.0,4.0,93,0.00,,,0.00,weatherlink.com 1.10,2013-01-02 01:49:00,
2013-01-01 18:04:00,36.7,35.0,30.62,North,355,3.0,7.0,94,0.00,,,0.00,weatherlink.com 1.10,2013-01-02 02:04:00,
2013-01-01 18:19:00,36.9,35.0,30.61,NE,46,3.0,7.0,94,0.00,,,0.00,weatherlink.com 1.10,2013-01-02 02:19:00,
2013-01-01 18:34:00,37.0,36.0,30.61,ENE,63,2.0,6.0,94,0.00,,,0.00,weatherlink.com 1.10,2013-01-02 02:34:00,
2013-01-01 18:49:00,37.0,35.0,30.61,NNW,330,2.0,8.0,93,0.00,,,0.00,weatherlink.com 1.10,2013-01-02 02:49:00,
2013-01-01 19:04:00,37.0,35.0,30.60,NNE,27,2.0,5.0,92,0.00,,,0.00,weatherlink.com 1.10,2013-01-02 03:04:00,
2013-01-01 19:19:00,36.9,35.0,30.60,East,81,2.0,5.0,93,0.00,,,0.00,weatherlink.com 1.10,2013-01-02 03:19:00,
2013-01-01 19:34:00,37.0,35.0,30.60,NE,51,3.0,6.0,93,0.00,,,0.00,weatherlink.com 1.10,2013-01-02 03:34:00,
2013-01-01 19:49:00,37.3,36.0,30.60,East,92,5.0,7.0,93,0.00,,,0.00,weatherlink.com 1.10,2013-01-02 03:49:00,
2013-01-01 20:04:00,37.4,35.0,30.60,ENE,67,2.0,8.0,92,0.00,,,0.00,weatherlink.com 1.10,2013-01-02 04:04:00,
2013-01-01 20:19:00,37.6,36.0,30.59,North,349,4.0,9.0,92,0.00,,,0.00,weatherlink.com 1.10,2013-01-02 04:19:00,
2013-01-01 20:34:00,37.6,36.0,30.59,ENE,63,6.0,10.0,92,0.00,,,0.00,weatherlink.com 1.10,2013-01-02 04:34:00,
2013-01-01 20:49:00,37.5,35.0,30.59,North,5,5.0,12.0,92,0.00,,,0.00,weatherlink.com 1.10,2013-01-02 04:49:00,
2013-01-01 21:04:00,37.5,35.0,30.59,NNE,25,3.0,11.0,92,0.00,,,0.00,weatherlink.com 1.10,2013-01-02 05:04:00,
2013-01-01 21:19:00,37.7,36.0,30.58,NNE,29,8.0,11.0,92,0.00,,,0.00,weatherlink.com 1.10,2013-01-02 05:19:00,
2013-01-01 21:34:00,37.8,36.0,30.59,NNE,13,4.0,12.0,91,0.00,,,0.00,weatherlink.com 1.10,2013-01-02 05:34:00,
2013-01-01 21:49:00,37.6,33.0,30.59,ENE,71,6.0,13.0,84,0.00,,,0.00,weatherlink.com 1.10,2013-01-02 05:49:00,
2013-01-01 22:04:00,37.5,33.0,30.58,NE,36,12.0,15.0,83,0.00,,,0.00,weatherlink.com 1.10,2013-01-02 06:04:00,
2013-01-01 22:19:00,37.2,33.0,30.58,NNE,30,8.0,16.0,83,0.00,,,0.00,weatherlink.com 1.10,2013-01-02 06:19:00,
2013-01-01 22:34:00,37.1,32.0,30.58,NE,37,13.0,18.0,82,0.00,,,0.00,weatherlink.com 1.10,2013-01-02 06:34:00,
2013-01-01 22:49:00,37.1,32.0,30.58,NE,51,7.0,16.0,83,0.00,,,0.00,weatherlink.com 1.10,2013-01-02 06:49:00,
2013-01-01 23:04:00,37.2,32.0,30.58,NE,34,10.0,16.0,82,0.00,,,0.00,weatherlink.com 1.10,2013-01-02 07:04:00,
2013-01-01 23:19:00,37.3,32.0,30.58,NE,43,7.0,15.0,82,0.00,,,0.00,weatherlink.com 1.10,2013-01-02 07:19:00,
2013-01-01 23:34:00,37.3,32.0,30.58,NNE,33,8.0,15.0,81,0.00,,,0.00,weatherlink.com 1.10,2013-01-02 07:34:00,
2013-01-01 23:49:00,37.2,32.0,30.58,NE,43,9.0,15.0,80,0.00,,,0.00,weatherlink.com 1.10,2013-01-02 07:49:00,